EDT,Max TemperatureF,Mean TemperatureF,Min TemperatureF,Max Dew PointF,MeanDew PointF,Min DewpointF,Max Humidity, Mean Humidity, Min Humidity, Max Sea Level PressureIn, Mean Sea Level PressureIn, Min Sea Level PressureIn, Max VisibilityMiles, Mean VisibilityMiles, Min VisibilityMiles, Max Wind SpeedMPH, Mean Wind SpeedMPH, Max Gust SpeedMPH,PrecipitationIn, CloudCover, Events, WindDirDegrees
2013-4-1,45,38,32,43,27,10,93,67,28,30.04,29.87,29.70,10,8,0,23,12,34,0.02,6,Fog-Snow,296
2013-4-2,39,30,24,21,14,10,86,54,33,30.21,30.13,30.05,10,9,1,17,7,28,0.00,4,Snow,301
2013-4-3,39,32,26,20,12,7,66,45,30,30.44,30.33,30.20,10,10,10,17,8,28,0.00,1,,308
2013-4-4,53,36,21,16,11,4,74,38,14,30.41,30.21,29.99,10,10,9,10,5,,0.00,0,,141
2013-4-5,55,46,35,26,21,17,57,41,28,30.19,30.01,29.94,10,10,10,18,9,26,0.00,1,,303
2013-4-6,59,42,28,21,14,6,64,37,13,30.31,30.20,30.04,10,10,10,9,5,,0.00,1,,136
2013-4-7,73,62,53,46,35,19,60,37,26,30.02,29.94,29.88,10,10,10,21,13,34,0.00,3,,206
2013-4-8,75,62,51,47,43,40,66,49,33,30.05,29.98,29.90,10,10,10,18,7,28,0.00,4,,202
2013-4-9,81,70,61,54,50,46,70,51,36,30.10,30.00,29.91,10,10,10,15,9,22,0.00,2,,233
2013-4-10,81,70,59,61,56,50,94,63,43,29.96,29.89,29.80,10,8,2,29,11,39,0.42,5,Rain-Thunderstorm,240
2013-4-11,75,66,57,58,56,51,100,78,50,29.88,29.79,29.60,10,8,1,10,7,,0.01,2,,177
2013-4-12,66,55,45,59,50,32,96,75,52,29.86,29.62,29.51,10,9,3,18,11,30,0.44,7,Rain,224
2013-4-13,55,47,39,34,31,28,73,58,42,30.04,29.93,29.85,10,10,10,21,10,26,0.00,5,,269
2013-4-14,62,48,36,34,30,26,70,49,31,30.17,30.09,30.03,10,10,10,9,6,16,0.00,1,,179
2013-4-15,66,60,55,48,43,34,65,51,42,30.11,30.07,29.98,10,10,10,18,11,24,0.00,5,,152
2013-4-16,80,66,54,59,55,47,100,80,46,30.21,30.13,30.05,10,5,0,34,10,53,1.23,6,Fog-Rain-Thunderstorm,212
2013-4-17,66,58,51,57,53,46,100,88,61,30.26,30.18,30.12,10,5,0,8,2,,0.00,6,Fog,352
2013-4-18,84,72,61,58,55,52,81,57,37,30.12,29.93,29.78,10,10,7,21,13,32,0.00,1,,167
2013-4-19,71,58,44,61,47,28,88,66,49,29.87,29.67,29.51,10,9,4,29,17,41,0.15,5,Rain,219
2013-4-20,46,42,35,30,25,21,70,54,37,30.42,30.11,29.88,10,10,10,21,14,33,0.01,6,Rain-Snow,275
2013-4-21,53,41,30,24,20,16,67,44,24,30.61,30.52,30.44,10,10,10,9,5,,0.00,0,,62
2013-4-22,62,52,42,29,24,19,51,37,21,30.48,30.39,30.30,10,10,10,14,9,20,0.00,0,,125
2013-4-23,70,54,39,37,33,29,73,44,25,30.29,30.15,29.97,10,10,10,10,7,,0.00,0,,138
2013-4-24,71,54,39,55,44,33,88,68,47,30.17,29.90,29.77,10,9,2,25,12,43,0.26,7,Rain-Thunderstorm,233
2013-4-25,57,46,36,38,31,27,86,61,33,30.38,30.27,30.18,10,10,10,20,8,23,0.01,4,Rain,240
2013-4-26,61,50,41,36,30,23,79,50,26,30.49,30.43,30.37,10,10,8,5,3,,0.00,1,,311
2013-4-27,73,58,44,38,31,25,60,37,21,30.40,30.30,30.17,10,10,10,10,4,17,0.00,0,,101
2013-4-28,60,57,54,52,46,38,90,71,44,30.16,30.05,29.96,10,9,4,14,9,22,0.18,5,Rain,134
2013-4-29,64,58,52,57,53,47,94,83,74,30.04,29.99,29.95,10,8,2,10,7,,0.13,8,Rain,156
2013-4-30,72,63,54,55,51,48,93,71,49,30.21,30.12,30.03,10,10,2,14,7,20,0.00,3,,121